Time;durP1;ratioP1;P1;durP2;ratioP2;P2;SDS_P1;SDS_P2;PMS_P1;PMS_P2;Temp;Humidity;BMP_temperature;BMP_pressure;BME280_temperature;BME280_humidity;BME280_pressure;Samples;Min_cycle;Max_cycle;Signal;HPM_P1;HPM_P2
2021/08/09 00:00:30;;;;;;;2.53;1.10;;;18.70;66.20;;;;;;9994641;28;20033;-61
2021/08/09 00:05:21;;;;;;;3.80;1.10;;;18.60;67.10;;;;;;9996406;28;20022;-62
2021/08/09 00:10:12;;;;;;;3.35;2.10;;;18.60;66.70;;;;;;9991507;28;20065;-61
2021/08/09 00:15:03;;;;;;;1.70;1.15;;;18.60;66.80;;;;;;10003229;28;20049;-61
2021/08/09 00:19:53;;;;;;;2.35;1.40;;;18.50;67.00;;;;;;9992857;28;20042;-61
2021/08/09 00:24:44;;;;;;;2.67;1.10;;;18.50;67.40;;;;;;10000084;28;20040;-62
2021/08/09 00:29:34;;;;;;;3.30;1.15;;;18.40;67.60;;;;;;9998259;28;20045;-62
2021/08/09 00:34:25;;;;;;;2.58;1.10;;;18.30;67.90;;;;;;10001235;28;20034;-61
2021/08/09 00:39:16;;;;;;;4.43;1.48;;;18.20;68.00;;;;;;9995874;28;20038;-62
2021/08/09 00:44:07;;;;;;;1.80;1.58;;;18.10;68.40;;;;;;9995007;28;20085;-61
2021/08/09 00:48:57;;;;;;;2.50;1.50;;;18.10;68.60;;;;;;10002013;28;20042;-63
2021/08/09 00:53:48;;;;;;;2.70;1.20;;;18.00;68.60;;;;;;9993064;28;20670;-61
2021/08/09 00:58:39;;;;;;;1.55;1.45;;;18.00;68.80;;;;;;9999705;28;20492;-61
2021/08/09 01:03:30;;;;;;;1.90;1.05;;;17.90;69.00;;;;;;10018545;28;20021;-62
2021/08/09 01:08:44;;;;;;;3.10;0.98;;;17.90;69.00;;;;;;9998096;28;20535;-61
2021/08/09 01:13:53;;;;;;;1.27;0.98;;;17.90;69.40;;;;;;9997729;28;20460;-61
2021/08/09 01:18:45;;;;;;;1.40;1.20;;;17.80;69.50;;;;;;10000472;28;20038;-62
2021/08/09 01:23:42;;;;;;;2.22;1.27;;;17.90;69.30;;;;;;9998639;28;20029;-64
2021/08/09 01:28:33;;;;;;;2.53;1.25;;;17.80;69.40;;;;;;10018748;28;20488;-61
2021/08/09 01:33:25;;;;;;;1.98;1.17;;;17.80;69.60;;;;;;9998361;28;20038;-61
2021/08/09 01:38:16;;;;;;;1.58;1.13;;;17.70;70.00;;;;;;9996887;28;20322;-61
2021/08/09 01:43:07;;;;;;;2.97;1.08;;;17.70;70.20;;;;;;10001286;28;20072;-62
2021/08/09 01:47:58;;;;;;;2.78;1.48;;;17.60;70.40;;;;;;9989029;28;20080;-61
2021/08/09 01:52:49;;;;;;;2.65;1.52;;;17.60;70.40;;;;;;9998334;28;20030;-61
2021/08/09 01:57:40;;;;;;;2.50;1.33;;;17.50;70.80;;;;;;9993934;28;20041;-60
2021/08/09 02:02:32;;;;;;;1.73;1.27;;;17.50;70.90;;;;;;9996666;28;20739;-61
2021/08/09 02:07:24;;;;;;;2.53;1.30;;;17.60;71.00;;;;;;9992655;28;20026;-62
2021/08/09 02:12:15;;;;;;;4.57;1.05;;;17.60;71.10;;;;;;9990196;28;20089;-62
2021/08/09 02:17:15;;;;;;;3.75;1.02;;;17.60;71.10;;;;;;9996789;28;20109;-62
2021/08/09 02:22:12;;;;;;;5.20;1.13;;;17.60;71.50;;;;;;9995613;28;20543;-61
2021/08/09 02:27:08;;;;;;;1.25;0.98;;;17.60;71.60;;;;;;9996334;28;20168;-61
2021/08/09 02:32:05;;;;;;;3.72;1.15;;;17.50;71.70;;;;;;9997218;28;20045;-62
2021/08/09 02:36:56;;;;;;;2.22;1.27;;;17.50;71.90;;;;;;9998421;28;20060;-61
2021/08/09 02:41:48;;;;;;;2.58;1.15;;;17.60;72.00;;;;;;9995459;28;20447;-61
2021/08/09 02:46:41;;;;;;;1.67;1.00;;;17.50;72.00;;;;;;10000535;28;20105;-61
2021/08/09 02:51:33;;;;;;;3.83;1.00;;;17.50;72.30;;;;;;9995993;28;20025;-61
2021/08/09 02:56:26;;;;;;;1.58;0.88;;;17.70;72.40;;;;;;9987711;28;20032;-60
2021/08/09 03:01:18;;;;;;;2.05;1.10;;;17.60;72.40;;;;;;9993681;28;20057;-61
2021/08/09 03:06:11;;;;;;;2.55;1.13;;;17.70;72.40;;;;;;9995336;28;20113;-60
2021/08/09 03:11:02;;;;;;;2.03;1.50;;;17.60;72.70;;;;;;9991810;28;20038;-60
2021/08/09 03:15:53;;;;;;;1.98;0.80;;;17.60;72.70;;;;;;9989119;28;21451;-61
2021/08/09 03:20:44;;;;;;;1.67;0.90;;;17.60;72.80;;;;;;9996796;28;20050;-61
2021/08/09 03:25:36;;;;;;;1.95;1.05;;;17.60;72.90;;;;;;9993590;28;20024;-62
2021/08/09 03:30:27;;;;;;;2.78;1.08;;;17.60;73.20;;;;;;9996472;28;20107;-61
2021/08/09 03:35:18;;;;;;;2.03;1.23;;;17.60;73.10;;;;;;9987920;28;20586;-61
2021/08/09 03:40:09;;;;;;;1.60;1.15;;;17.70;73.00;;;;;;9988936;28;20034;-61
2021/08/09 03:44:59;;;;;;;1.52;1.10;;;17.60;73.30;;;;;;9993248;28;20809;-62
2021/08/09 03:49:50;;;;;;;1.33;1.10;;;17.60;73.20;;;;;;10000746;28;20041;-60
2021/08/09 03:54:40;;;;;;;2.78;1.02;;;17.60;73.10;;;;;;10005804;28;20017;-62
2021/08/09 03:59:31;;;;;;;2.42;1.27;;;17.50;73.30;;;;;;9998466;28;20038;-61
2021/08/09 04:04:22;;;;;;;2.10;1.20;;;17.40;73.60;;;;;;9992153;28;20046;-61
2021/08/09 04:09:12;;;;;;;2.10;1.23;;;17.40;74.00;;;;;;9999058;28;20404;-61
2021/08/09 04:14:04;;;;;;;1.27;0.93;;;17.30;74.00;;;;;;9999473;28;20439;-61
2021/08/09 04:18:55;;;;;;;1.20;1.00;;;17.30;74.40;;;;;;9999815;28;20111;-62
2021/08/09 04:23:46;;;;;;;2.80;1.50;;;17.30;74.20;;;;;;9997421;28;20056;-60
2021/08/09 04:28:37;;;;;;;2.28;1.50;;;17.20;74.70;;;;;;10001393;28;20075;-61
2021/08/09 04:33:28;;;;;;;2.33;1.38;;;17.20;74.90;;;;;;10000726;28;20034;-61
2021/08/09 04:38:19;;;;;;;2.20;1.38;;;17.20;74.90;;;;;;9995871;28;20084;-61
2021/08/09 04:43:09;;;;;;;2.10;1.50;;;17.20;74.80;;;;;;9999365;28;20447;-62
2021/08/09 04:48:00;;;;;;;4.43;1.60;;;17.10;75.30;;;;;;9998101;28;20391;-61
2021/08/09 04:52:51;;;;;;;3.67;1.25;;;17.20;75.20;;;;;;9997562;28;20041;-61
2021/08/09 04:57:41;;;;;;;2.70;1.50;;;17.10;75.20;;;;;;9998270;28;20022;-61
2021/08/09 05:02:32;;;;;;;1.35;1.00;;;17.10;75.30;;;;;;9997835;28;20656;-62
2021/08/09 05:07:22;;;;;;;1.70;1.58;;;17.20;75.00;;;;;;9997991;28;20420;-61
2021/08/09 05:12:13;;;;;;;3.05;1.60;;;17.30;74.90;;;;;;9997332;28;20496;-60
2021/08/09 05:17:04;;;;;;;3.15;1.60;;;17.30;75.00;;;;;;10002608;28;20042;-61
2021/08/09 05:21:54;;;;;;;1.83;1.30;;;17.20;75.30;;;;;;10001592;28;20026;-62
2021/08/09 05:26:45;;;;;;;2.90;1.23;;;17.20;75.40;;;;;;10000469;28;20411;-62
2021/08/09 05:31:37;;;;;;;2.78;1.52;;;17.10;75.30;;;;;;9997513;28;20396;-61
2021/08/09 05:36:29;;;;;;;2.78;1.13;;;17.10;75.70;;;;;;9998843;28;20323;-61
2021/08/09 05:41:20;;;;;;;3.70;1.70;;;17.10;75.80;;;;;;10001010;28;20035;-62
2021/08/09 05:46:11;;;;;;;1.98;1.40;;;17.20;75.80;;;;;;9993524;28;20038;-62
2021/08/09 05:51:01;;;;;;;2.17;1.30;;;17.20;75.90;;;;;;9995571;28;20201;-62
2021/08/09 05:55:53;;;;;;;2.15;1.30;;;17.10;76.00;;;;;;10003101;28;20590;-61
2021/08/09 06:00:43;;;;;;;2.92;1.30;;;17.20;76.10;;;;;;10001846;28;20472;-62
2021/08/09 06:05:34;;;;;;;4.53;1.67;;;17.30;76.10;;;;;;9992523;28;20018;-62
2021/08/09 06:10:25;;;;;;;5.68;1.50;;;17.30;76.20;;;;;;9994762;28;20045;-62
2021/08/09 06:15:15;;;;;;;3.22;1.60;;;17.40;76.00;;;;;;9998445;28;20042;-63
2021/08/09 06:20:07;;;;;;;1.92;1.15;;;17.50;75.90;;;;;;9991178;28;20040;-62
2021/08/09 06:24:57;;;;;;;2.42;1.27;;;17.60;75.90;;;;;;9991543;28;20029;-63
2021/08/09 06:29:48;;;;;;;2.78;1.23;;;17.70;76.00;;;;;;9999219;28;20046;-61
2021/08/09 06:34:39;;;;;;;2.92;1.20;;;17.90;75.60;;;;;;9998290;28;20063;-62
2021/08/09 06:39:30;;;;;;;3.22;1.20;;;18.00;75.40;;;;;;9997177;28;20033;-64
2021/08/09 06:44:20;;;;;;;4.10;2.17;;;18.00;75.30;;;;;;9998381;28;20599;-63
2021/08/09 06:49:11;;;;;;;1.35;1.13;;;18.10;75.20;;;;;;10000521;28;20168;-63
2021/08/09 06:54:02;;;;;;;2.47;1.20;;;18.30;75.00;;;;;;9999484;28;20076;-64
2021/08/09 06:58:53;;;;;;;1.73;1.02;;;18.40;74.50;;;;;;9992085;28;20033;-65
2021/08/09 07:03:45;;;;;;;5.85;1.42;;;18.50;74.50;;;;;;9992527;28;20025;-64
2021/08/09 07:08:36;;;;;;;2.25;1.10;;;18.60;74.30;;;;;;9994684;28;20030;-62
2021/08/09 07:13:26;;;;;;;3.67;1.92;;;18.70;74.10;;;;;;9994105;28;20046;-60
2021/08/09 07:18:17;;;;;;;3.88;1.10;;;18.80;73.90;;;;;;9998851;28;20436;-61
2021/08/09 07:23:07;;;;;;;1.90;1.58;;;18.90;73.70;;;;;;9999256;28;20026;-63
2021/08/09 07:27:59;;;;;;;1.42;0.93;;;18.90;73.60;;;;;;9985873;28;20027;-65
2021/08/09 07:32:49;;;;;;;2.42;1.20;;;19.00;73.80;;;;;;9993225;28;20084;-61
2021/08/09 07:37:40;;;;;;;2.33;0.80;;;19.10;72.90;;;;;;9996863;28;20503;-65
2021/08/09 07:42:31;;;;;;;2.80;1.20;;;19.30;72.70;;;;;;9995995;28;20022;-64
2021/08/09 07:47:21;;;;;;;3.20;1.10;;;19.60;72.30;;;;;;9997088;28;20097;-62
2021/08/09 07:52:12;;;;;;;2.15;0.98;;;19.60;71.90;;;;;;9998277;28;20068;-64
2021/08/09 07:57:06;;;;;;;1.73;1.00;;;19.60;72.10;;;;;;9996041;28;20500;-62
2021/08/09 08:02:02;;;;;;;1.83;0.90;;;19.60;71.90;;;;;;9999627;28;20522;-64
2021/08/09 08:06:52;;;;;;;1.17;1.08;;;19.70;71.50;;;;;;9995987;28;20087;-61
2021/08/09 08:11:43;;;;;;;1.80;1.38;;;19.80;71.20;;;;;;9991299;28;20130;-65
2021/08/09 08:16:33;;;;;;;2.08;1.15;;;20.00;70.80;;;;;;9991201;28;20045;-61
2021/08/09 08:21:24;;;;;;;1.38;0.80;;;20.10;70.30;;;;;;9993470;28;20029;-62
2021/08/09 08:26:15;;;;;;;2.75;0.82;;;20.20;70.10;;;;;;9983891;28;20026;-60
2021/08/09 08:31:06;;;;;;;2.13;1.00;;;20.30;69.80;;;;;;9999394;28;20554;-58
2021/08/09 08:35:57;;;;;;;2.72;1.58;;;20.30;69.60;;;;;;10007752;28;20033;-61
2021/08/09 08:40:49;;;;;;;5.60;1.45;;;20.40;69.40;;;;;;9995840;28;20061;-60
2021/08/09 08:45:40;;;;;;;2.88;1.30;;;20.40;69.20;;;;;;9995673;28;20034;-60
2021/08/09 08:50:31;;;;;;;5.80;1.85;;;20.50;69.10;;;;;;9999619;28;20074;-62
2021/08/09 08:55:23;;;;;;;3.97;1.15;;;20.70;68.60;;;;;;10005860;28;20037;-63
2021/08/09 09:00:15;;;;;;;1.55;1.02;;;21.00;68.20;;;;;;10005634;28;20459;-62
2021/08/09 09:05:30;;;;;;;2.92;1.10;;;21.10;67.90;;;;;;10003321;28;20535;-63
2021/08/09 09:10:24;;;;;;;3.15;1.15;;;21.40;67.70;;;;;;10000854;28;20054;-62
2021/08/09 09:15:19;;;;;;;1.73;1.13;;;21.60;67.10;;;;;;10019315;28;20042;-62
2021/08/09 09:20:26;;;;;;;2.75;1.00;;;21.90;66.50;;;;;;10000999;28;20189;-63
2021/08/09 09:25:30;;;;;;;1.73;1.00;;;22.00;66.30;;;;;;9997224;28;20026;-62
2021/08/09 09:30:27;;;;;;;3.77;1.30;;;22.20;65.60;;;;;;10001864;28;20109;-63
2021/08/09 09:35:21;;;;;;;2.28;1.00;;;22.30;65.80;;;;;;10002844;28;20057;-62
2021/08/09 09:40:19;;;;;;;2.45;1.00;;;22.10;65.80;;;;;;10002396;28;20359;-62
2021/08/09 09:45:23;;;;;;;1.83;0.85;;;22.30;65.10;;;;;;10001887;28;20300;-61
2021/08/09 09:50:24;;;;;;;1.87;0.90;;;22.70;62.40;;;;;;10001268;28;20042;-63
2021/08/09 09:55:16;;;;;;;1.52;0.65;;;22.80;63.40;;;;;;9999538;28;20487;-62
2021/08/09 10:00:11;;;;;;;1.65;0.82;;;22.80;63.50;;;;;;9997602;28;20030;-61
2021/08/09 10:05:02;;;;;;;4.13;0.70;;;23.00;62.80;;;;;;9992580;28;20157;-62
2021/08/09 10:09:55;;;;;;;1.27;0.77;;;23.00;62.40;;;;;;10002767;28;20576;-61
2021/08/09 10:14:47;;;;;;;2.40;1.33;;;23.10;62.00;;;;;;9998516;28;20556;-61
2021/08/09 10:19:42;;;;;;;2.42;0.88;;;23.30;61.40;;;;;;10001571;28;20251;-63
2021/08/09 10:24:35;;;;;;;;;;;23.60;60.40;;;;;;10001268;28;20022;-63
2021/08/09 10:29:26;;;;;;;2.75;1.00;;;23.50;58.30;;;;;;9998190;28;19924;-63
2021/08/09 10:34:37;;;;;;;4.20;1.00;;;23.50;60.20;;;;;;9995111;28;20018;-62
2021/08/09 10:39:45;;;;;;;1.80;0.70;;;23.60;58.90;;;;;;9996769;28;20049;-63
2021/08/09 10:44:48;;;;;;;3.42;1.73;;;24.00;57.20;;;;;;9997316;28;20105;-60
2021/08/09 10:49:39;;;;;;;1.23;0.90;;;24.40;56.80;;;;;;10009467;28;20295;-61
2021/08/09 10:54:33;;;;;;;1.02;0.60;;;24.50;57.40;;;;;;9994422;28;20025;-61
2021/08/09 10:59:48;;;;;;;3.73;1.47;;;24.60;57.20;;;;;;9996356;28;20042;-62
2021/08/09 11:04:39;;;;;;;1.98;1.23;;;24.80;56.40;;;;;;9990488;28;20026;-61
2021/08/09 11:09:29;;;;;;;2.35;0.68;;;24.90;56.00;;;;;;9996255;28;20034;-64
2021/08/09 11:14:20;;;;;;;2.88;0.90;;;24.90;55.80;;;;;;9993706;28;20043;-61
2021/08/09 11:19:19;;;;;;;2.50;1.10;;;24.50;56.10;;;;;;9996424;28;20473;-62
2021/08/09 11:24:10;;;;;;;2.58;0.98;;;23.80;56.30;;;;;;9999900;28;20042;-62
2021/08/09 11:29:04;;;;;;;1.65;0.90;;;23.40;56.90;;;;;;9992298;28;20038;-64
2021/08/09 11:33:55;;;;;;;2.08;1.00;;;23.20;56.90;;;;;;9995056;28;20049;-59
2021/08/09 11:38:50;;;;;;;3.15;1.08;;;23.40;56.50;;;;;;10002090;28;20066;-60
2021/08/09 11:43:42;;;;;;;2.70;1.25;;;23.90;55.60;;;;;;9997304;28;20080;-60
2021/08/09 11:48:35;;;;;;;2.53;0.90;;;24.20;55.10;;;;;;9994161;28;20121;-60
2021/08/09 11:53:26;;;;;;;0.68;0.57;;;24.10;55.40;;;;;;9997324;28;20052;-61
2021/08/09 11:58:29;;;;;;;1.45;0.93;;;24.40;54.80;;;;;;9997097;28;20341;-60
2021/08/09 12:03:21;;;;;;;4.20;1.00;;;24.30;54.30;;;;;;9999057;28;20129;-61
2021/08/09 12:08:12;;;;;;;2.05;1.38;;;24.30;54.80;;;;;;9999402;28;20501;-60
2021/08/09 12:13:04;;;;;;;2.45;1.17;;;24.50;54.60;;;;;;10003926;28;20053;-60
2021/08/09 12:18:08;;;;;;;1.13;0.82;;;24.20;54.90;;;;;;10004074;28;20022;-62
2021/08/09 12:23:00;;;;;;;1.40;0.85;;;23.90;55.10;;;;;;10003250;28;20044;-63
2021/08/09 12:28:01;;;;;;;2.05;0.90;;;23.90;54.80;;;;;;10001845;28;20125;-62
2021/08/09 12:33:02;;;;;;;2.85;1.20;;;24.40;53.40;;;;;;10006158;28;20342;-63
2021/08/09 12:37:55;;;;;;;2.55;1.00;;;24.70;53.10;;;;;;9999865;28;20477;-63
2021/08/09 12:43:03;;;;;;;0.95;0.75;;;25.00;52.80;;;;;;10000560;28;20022;-63
2021/08/09 12:47:54;;;;;;;1.85;1.00;;;25.30;52.20;;;;;;10004125;28;20199;-63
2021/08/09 12:52:44;;;;;;;1.13;0.70;;;25.70;52.10;;;;;;10001870;28;20042;-63
2021/08/09 12:57:36;;;;;;;1.40;1.10;;;25.80;52.30;;;;;;9999719;28;20169;-64
2021/08/09 13:02:27;;;;;;;1.90;0.90;;;26.00;51.80;;;;;;10001425;28;20025;-63
2021/08/09 13:07:18;;;;;;;2.05;0.90;;;26.40;51.50;;;;;;10000185;28;20037;-66
2021/08/09 13:12:08;;;;;;;1.80;1.30;;;26.40;51.00;;;;;;10003099;28;20273;-64
2021/08/09 13:17:01;;;;;;;1.00;0.60;;;27.10;50.40;;;;;;10001960;28;20416;-63
2021/08/09 13:21:52;;;;;;;1.50;0.90;;;27.90;49.70;;;;;;9997090;28;20022;-65
2021/08/09 13:26:42;;;;;;;3.42;1.20;;;27.50;49.60;;;;;;10001279;28;20025;-64
2021/08/09 13:31:33;;;;;;;1.77;1.00;;;28.40;49.00;;;;;;10000047;28;20125;-62
2021/08/09 13:36:24;;;;;;;2.90;1.58;;;30.60;46.70;;;;;;10000418;28;20026;-63
2021/08/09 13:41:14;;;;;;;2.42;1.20;;;30.60;45.90;;;;;;10003362;28;20034;-63
2021/08/09 13:46:09;;;;;;;1.35;0.68;;;31.50;44.20;;;;;;10001631;28;20132;-62
2021/08/09 13:50:59;;;;;;;2.80;1.00;;;30.80;44.20;;;;;;10000276;28;20034;-62
2021/08/09 13:55:50;;;;;;;2.13;0.90;;;31.70;43.00;;;;;;10000616;28;20302;-62
2021/08/09 14:00:41;;;;;;;2.72;0.80;;;31.20;42.60;;;;;;9992901;28;20082;-62
2021/08/09 14:05:31;;;;;;;1.65;0.73;;;31.30;41.70;;;;;;10001427;28;20025;-63
2021/08/09 14:10:22;;;;;;;2.00;1.25;;;32.30;40.80;;;;;;9995384;28;20091;-60
2021/08/09 14:15:12;;;;;;;2.10;0.90;;;31.70;40.90;;;;;;9989750;28;20100;-61
2021/08/09 14:20:05;;;;;;;1.05;0.88;;;33.60;39.50;;;;;;9992852;28;20045;-61
2021/08/09 14:24:58;;;;;;;1.33;1.10;;;34.90;37.90;;;;;;9999822;28;20497;-65
2021/08/09 14:29:48;;;;;;;1.55;0.80;;;34.30;37.50;;;;;;9999819;28;20033;-63
2021/08/09 14:34:39;;;;;;;1.77;1.15;;;34.80;37.00;;;;;;10000459;28;20505;-63
2021/08/09 14:39:30;;;;;;;1.95;0.80;;;35.40;36.60;;;;;;9997686;28;20400;-62
2021/08/09 14:44:20;;;;;;;1.27;0.80;;;35.00;35.90;;;;;;10000431;28;20331;-63
2021/08/09 14:49:11;;;;;;;1.67;0.80;;;34.90;35.10;;;;;;9996881;28;20347;-62
2021/08/09 14:54:02;;;;;;;1.63;1.00;;;34.80;34.50;;;;;;9996396;28;20033;-63
2021/08/09 14:58:52;;;;;;;1.80;0.85;;;34.20;34.20;;;;;;9992233;28;20040;-59
2021/08/09 15:03:43;;;;;;;0.90;0.73;;;34.30;33.30;;;;;;10012443;28;20040;-63
2021/08/09 15:08:34;;;;;;;2.13;0.93;;;33.80;33.60;;;;;;9996809;28;20042;-62
2021/08/09 15:13:25;;;;;;;1.20;0.80;;;33.00;33.70;;;;;;9987610;28;20046;-60
2021/08/09 15:18:16;;;;;;;1.73;0.90;;;32.40;33.60;;;;;;9996200;28;20049;-63
2021/08/09 15:23:06;;;;;;;1.25;0.68;;;31.60;34.20;;;;;;9992688;28;20404;-64
2021/08/09 15:27:57;;;;;;;1.92;0.57;;;31.10;34.60;;;;;;9992069;28;20033;-64
2021/08/09 15:32:48;;;;;;;2.47;0.88;;;30.00;35.20;;;;;;9995407;28;20030;-63
2021/08/09 15:37:39;;;;;;;2.10;1.25;;;29.30;35.90;;;;;;9991187;28;20026;-58
2021/08/09 15:42:29;;;;;;;1.58;0.63;;;28.60;36.30;;;;;;9991532;28;20516;-59
2021/08/09 15:47:20;;;;;;;2.45;0.90;;;28.60;36.50;;;;;;10006044;28;20310;-63
2021/08/09 15:52:11;;;;;;;1.55;0.80;;;31.10;34.60;;;;;;9997448;28;20038;-63
2021/08/09 15:57:01;;;;;;;2.58;1.38;;;33.20;32.80;;;;;;10000307;28;20065;-63
2021/08/09 16:01:52;;;;;;;2.08;1.10;;;34.20;33.00;;;;;;9995279;28;20432;-62
2021/08/09 16:06:47;;;;;;;1.33;0.70;;;35.90;31.40;;;;;;10005644;28;20030;-61
2021/08/09 16:11:38;;;;;;;1.77;1.00;;;33.40;33.50;;;;;;10005654;28;20045;-61
2021/08/09 16:16:28;;;;;;;1.30;0.82;;;30.70;36.60;;;;;;9993785;28;20042;-62
2021/08/09 16:21:19;;;;;;;2.75;0.80;;;29.10;38.10;;;;;;10011484;28;20088;-61
2021/08/09 16:26:10;;;;;;;2.38;1.20;;;28.80;38.10;;;;;;9996279;28;20347;-58
2021/08/09 16:31:01;;;;;;;1.60;0.80;;;28.70;38.30;;;;;;9996709;28;20041;-60
2021/08/09 16:35:51;;;;;;;2.42;0.90;;;28.50;38.40;;;;;;10001098;28;20058;-62
2021/08/09 16:40:42;;;;;;;1.58;0.60;;;28.10;38.70;;;;;;9998149;28;20481;-62
2021/08/09 16:45:33;;;;;;;1.27;0.90;;;28.00;38.70;;;;;;10003610;28;20400;-61
2021/08/09 16:50:23;;;;;;;1.42;0.90;;;29.80;37.30;;;;;;10003749;28;20042;-63
2021/08/09 16:55:14;;;;;;;1.73;0.93;;;30.30;36.20;;;;;;10001218;28;20034;-63
2021/08/09 17:00:05;;;;;;;2.15;1.08;;;28.80;38.00;;;;;;10003562;28;20025;-62
2021/08/09 17:04:56;;;;;;;2.38;0.98;;;28.20;38.80;;;;;;10000109;28;20054;-62
2021/08/09 17:09:48;;;;;;;1.55;0.90;;;27.80;39.30;;;;;;10003860;28;20523;-61
2021/08/09 17:14:39;;;;;;;1.20;1.02;;;27.50;40.00;;;;;;10003382;28;20700;-61
2021/08/09 17:19:29;;;;;;;1.98;1.02;;;27.30;40.40;;;;;;9989203;28;20030;-59
2021/08/09 17:24:20;;;;;;;2.85;1.10;;;27.00;40.90;;;;;;10001370;28;20320;-60
2021/08/09 17:29:17;;;;;;;2.42;1.20;;;26.80;41.30;;;;;;9994053;28;20496;-61
2021/08/09 17:34:08;;;;;;;1.60;0.80;;;26.70;41.50;;;;;;9991958;28;20452;-62
2021/08/09 17:38:58;;;;;;;5.43;1.45;;;26.60;41.90;;;;;;10000300;28;20100;-60
2021/08/09 17:43:53;;;;;;;2.55;1.30;;;26.40;42.50;;;;;;10003047;28;20025;-61
2021/08/09 17:48:43;;;;;;;1.55;0.85;;;26.20;42.80;;;;;;10004607;28;20034;-60
2021/08/09 17:53:34;;;;;;;2.65;1.90;;;26.30;42.90;;;;;;9992581;28;20038;-62
2021/08/09 17:58:25;;;;;;;1.17;0.80;;;26.00;43.40;;;;;;10000052;28;20580;-63
2021/08/09 18:03:16;;;;;;;1.58;1.20;;;25.70;44.00;;;;;;9991145;28;20400;-64
2021/08/09 18:08:07;;;;;;;2.33;1.60;;;25.60;44.20;;;;;;9997342;28;20076;-63
2021/08/09 18:12:57;;;;;;;3.22;1.90;;;25.40;44.50;;;;;;9989150;28;20054;-63
2021/08/09 18:17:52;;;;;;;3.35;1.38;;;25.30;45.00;;;;;;9993774;28;20401;-67
2021/08/09 18:22:42;;;;;;;4.47;1.50;;;25.10;45.30;;;;;;9992292;28;20033;-63
2021/08/09 18:27:34;;;;;;;3.22;1.33;;;24.90;45.70;;;;;;9994464;28;20033;-63
2021/08/09 18:32:24;;;;;;;2.15;1.70;;;24.80;46.30;;;;;;10000906;28;20044;-61
2021/08/09 18:37:15;;;;;;;4.03;1.50;;;24.70;46.40;;;;;;9995125;28;20026;-63
2021/08/09 18:42:08;;;;;;;6.70;1.90;;;24.70;46.70;;;;;;9992448;28;20058;-62
2021/08/09 18:46:59;;;;;;;3.53;1.48;;;24.70;46.90;;;;;;9993183;28;20133;-74
2021/08/09 18:51:51;;;;;;;2.38;1.30;;;24.60;47.20;;;;;;9998620;28;20053;-64
2021/08/09 18:56:41;;;;;;;2.58;1.55;;;24.40;47.60;;;;;;9991623;28;20029;-59
2021/08/09 19:01:32;;;;;;;2.67;1.10;;;24.30;47.90;;;;;;9998915;28;20033;-62
2021/08/09 19:06:23;;;;;;;1.52;1.00;;;24.20;48.20;;;;;;9989177;28;20010;-62
2021/08/09 19:11:15;;;;;;;3.67;1.63;;;24.20;48.50;;;;;;9995534;28;20050;-61
2021/08/09 19:16:07;;;;;;;2.85;1.38;;;24.10;48.70;;;;;;9994448;28;20039;-62
2021/08/09 19:20:58;;;;;;;3.47;2.03;;;24.00;49.00;;;;;;9996876;28;20133;-63
2021/08/09 19:25:48;;;;;;;3.55;1.50;;;24.10;49.30;;;;;;9995432;28;20014;-62
2021/08/09 19:30:41;;;;;;;3.00;1.20;;;24.10;49.50;;;;;;9992141;28;20046;-63
2021/08/09 19:35:31;;;;;;;8.65;2.60;;;24.00;49.80;;;;;;9991357;28;20023;-63
2021/08/09 19:40:22;;;;;;;1.92;1.20;;;24.00;50.10;;;;;;9983857;28;20121;-64
2021/08/09 19:45:13;;;;;;;1.67;1.20;;;23.80;50.50;;;;;;9994222;28;20031;-62
2021/08/09 19:50:05;;;;;;;1.85;1.00;;;23.80;50.70;;;;;;9991463;28;20044;-64
2021/08/09 19:54:55;;;;;;;3.53;1.75;;;23.80;51.10;;;;;;9994316;28;20345;-66
2021/08/09 19:59:46;;;;;;;1.95;1.20;;;23.70;51.50;;;;;;9990284;28;20026;-63
2021/08/09 20:04:41;;;;;;;3.63;1.20;;;23.60;51.50;;;;;;10002187;28;20034;-62
2021/08/09 20:09:31;;;;;;;;;;;23.50;52.00;;;;;;9999275;28;20068;-63
2021/08/09 20:14:22;;;;;;;1.58;1.08;;;23.50;52.30;;;;;;9989050;28;20616;-62
2021/08/09 20:19:12;;;;;;;2.30;1.17;;;23.50;52.10;;;;;;9997165;28;20029;-66
2021/08/09 20:24:03;;;;;;;2.75;1.50;;;23.50;52.30;;;;;;9992091;28;20303;-61
2021/08/09 20:28:54;;;;;;;1.80;1.17;;;23.50;52.50;;;;;;9999452;28;20113;-61
2021/08/09 20:33:45;;;;;;;2.05;1.40;;;23.40;52.90;;;;;;10004991;28;20113;-62
2021/08/09 20:38:35;;;;;;;5.07;1.40;;;23.40;53.30;;;;;;10006996;28;20030;-61
2021/08/09 20:43:26;;;;;;;1.75;1.38;;;23.30;53.50;;;;;;10004145;28;20056;-60
2021/08/09 20:48:16;;;;;;;2.25;1.33;;;23.30;53.90;;;;;;10001306;28;20484;-64
2021/08/09 20:53:07;;;;;;;1.88;1.45;;;23.20;54.20;;;;;;9999529;28;20045;-61
2021/08/09 20:57:58;;;;;;;2.20;1.20;;;23.20;54.30;;;;;;10004382;28;20550;-61
2021/08/09 21:02:49;;;;;;;2.70;1.50;;;23.10;54.60;;;;;;10003676;28;20076;-61
2021/08/09 21:07:40;;;;;;;2.92;1.65;;;23.00;55.00;;;;;;10000016;28;20397;-61
2021/08/09 21:12:32;;;;;;;3.20;1.40;;;23.00;55.30;;;;;;10002921;28;20037;-60
2021/08/09 21:17:23;;;;;;;2.45;1.55;;;22.90;55.70;;;;;;9997850;28;20037;-61
2021/08/09 21:22:13;;;;;;;3.60;1.63;;;22.80;55.90;;;;;;9996460;28;20444;-64
2021/08/09 21:27:04;;;;;;;2.80;1.40;;;22.80;56.20;;;;;;9998234;28;20085;-60
2021/08/09 21:31:55;;;;;;;5.43;1.70;;;22.60;56.50;;;;;;9996962;28;20042;-61
2021/08/09 21:36:45;;;;;;;3.00;1.70;;;22.60;56.80;;;;;;10001083;28;20294;-61
2021/08/09 21:41:36;;;;;;;3.50;1.50;;;22.60;57.20;;;;;;10012935;28;20026;-61
2021/08/09 21:46:28;;;;;;;2.33;1.25;;;22.60;57.20;;;;;;10003575;28;20351;-61
2021/08/09 21:51:18;;;;;;;2.10;1.40;;;22.50;57.60;;;;;;10004756;28;20401;-60
2021/08/09 21:56:09;;;;;;;4.25;1.77;;;22.50;57.90;;;;;;10001313;28;20022;-62
2021/08/09 22:01:00;;;;;;;1.80;1.38;;;22.40;58.20;;;;;;10018333;28;20105;-61
2021/08/09 22:05:50;;;;;;;4.40;1.75;;;22.30;58.50;;;;;;10005321;28;20042;-61
2021/08/09 22:10:41;;;;;;;4.38;1.75;;;22.20;58.90;;;;;;10000357;28;20030;-61
2021/08/09 22:15:32;;;;;;;4.03;1.38;;;22.10;59.20;;;;;;9999387;28;20045;-64
2021/08/09 22:20:23;;;;;;;1.90;1.38;;;21.90;59.50;;;;;;9996909;28;20503;-61
2021/08/09 22:25:14;;;;;;;2.05;1.13;;;21.80;59.80;;;;;;9995526;28;20022;-61
2021/08/09 22:30:09;;;;;;;2.25;1.27;;;21.80;59.80;;;;;;9988988;28;20147;-62
2021/08/09 22:35:00;;;;;;;5.53;2.38;;;21.70;60.20;;;;;;9996742;28;20053;-60
2021/08/09 22:39:51;;;;;;;3.33;1.25;;;21.70;60.20;;;;;;9994871;28;20018;-62
2021/08/09 22:44:43;;;;;;;2.30;1.75;;;21.60;60.50;;;;;;10008678;28;20448;-61
2021/08/09 22:49:34;;;;;;;2.55;1.33;;;21.50;61.00;;;;;;9994204;28;20109;-64
2021/08/09 22:54:25;;;;;;;1.88;1.08;;;21.40;61.20;;;;;;9992362;28;20408;-60
2021/08/09 22:59:16;;;;;;;2.97;1.42;;;21.40;61.40;;;;;;9993563;28;20128;-61
2021/08/09 23:04:07;;;;;;;2.15;1.45;;;21.40;61.60;;;;;;9996049;28;20108;-64
2021/08/09 23:08:58;;;;;;;2.72;1.35;;;21.30;61.80;;;;;;9991081;28;20030;-63
2021/08/09 23:13:48;;;;;;;2.38;1.27;;;21.30;62.00;;;;;;9993821;28;20069;-61
2021/08/09 23:18:39;;;;;;;1.83;1.45;;;21.30;62.30;;;;;;9988235;28;20037;-62
2021/08/09 23:23:32;;;;;;;2.95;1.13;;;21.30;62.30;;;;;;9986179;28;20046;-61
2021/08/09 23:28:23;;;;;;;2.47;1.48;;;21.30;62.60;;;;;;10000355;28;20034;-61
2021/08/09 23:33:16;;;;;;;5.63;1.40;;;21.20;62.90;;;;;;9994794;28;20100;-61
2021/08/09 23:38:07;;;;;;;1.92;1.40;;;21.10;63.30;;;;;;9997102;28;20026;-61
2021/08/09 23:42:58;;;;;;;3.42;1.50;;;21.10;63.40;;;;;;9990379;28;20454;-62
2021/08/09 23:47:48;;;;;;;3.60;1.60;;;20.90;63.90;;;;;;10011743;28;20080;-62
2021/08/09 23:52:39;;;;;;;3.60;1.65;;;21.00;64.00;;;;;;9995185;28;20404;-62
2021/08/09 23:57:31;;;;;;;2.03;1.55;;;20.90;65.00;;;;;;9996769;28;20501;-62
